Time;durP1;ratioP1;P1;durP2;ratioP2;P2;SDS_P1;SDS_P2;PMS_P1;PMS_P2;Temp;Humidity;BMP_temperature;BMP_pressure;BME280_temperature;BME280_humidity;BME280_pressure;Samples;Min_cycle;Max_cycle;Signal;HPM_P1;HPM_P2
2023/10/17 00:01:44;;;;;;;7.85;1.60;;;16.40;64.60;;;;;;5069636;28;20047;-80
2023/10/17 00:06:39;;;;;;;9.38;1.10;;;16.10;65.20;;;;;;5061215;28;20028;-81
2023/10/17 00:09:07;;;;;;;7.90;1.33;;;16.10;66.20;;;;;;5055609;28;20440;-82
2023/10/17 00:11:58;;;;;;;4.90;1.10;;;15.90;66.80;;;;;;5055279;28;20036;-81
2023/10/17 00:14:35;;;;;;;6.88;1.52;;;15.90;67.90;;;;;;5056989;28;20039;-84
2023/10/17 00:17:04;;;;;;;5.85;1.30;;;15.80;69.30;;;;;;5054655;28;20043;-82
2023/10/17 00:19:31;;;;;;;6.88;1.45;;;15.70;71.10;;;;;;5053188;28;20021;-82
2023/10/17 00:22:02;;;;;;;8.70;1.63;;;15.60;72.40;;;;;;5053864;28;20029;-81
2023/10/17 00:24:30;;;;;;;5.80;1.20;;;15.30;73.20;;;;;;5068953;28;20037;-81
2023/10/17 00:26:57;;;;;;;5.63;1.38;;;15.30;74.10;;;;;;5053886;28;20033;-82
2023/10/17 00:29:26;;;;;;;7.07;1.50;;;15.20;73.90;;;;;;5055050;28;20075;-81
2023/10/17 00:31:53;;;;;;;6.97;1.33;;;15.00;74.40;;;;;;5052562;28;20015;-83
2023/10/17 00:34:25;;;;;;;5.35;1.30;;;14.80;75.30;;;;;;5050666;28;20047;-81
2023/10/17 00:37:07;;;;;;;7.88;1.67;;;14.90;76.20;;;;;;5045413;28;20043;-81
2023/10/17 00:39:37;;;;;;;7.03;1.30;;;15.00;76.80;;;;;;5047224;28;20044;-80
2023/10/17 00:44:39;;;;;;;5.18;1.35;;;15.30;75.10;;;;;;5048085;28;20047;-81
2023/10/17 00:47:08;;;;;;;6.10;1.30;;;15.30;74.00;;;;;;5049094;28;20021;-80
2023/10/17 00:49:41;;;;;;;10.48;2.05;;;15.50;73.70;;;;;;5049080;28;20543;-80
2023/10/17 00:52:24;;;;;;;8.32;1.40;;;15.60;73.60;;;;;;5040202;28;20032;-81
2023/10/17 00:54:55;;;;;;;5.55;1.15;;;15.60;73.20;;;;;;5044171;28;20025;-81
2023/10/17 00:57:29;;;;;;;8.18;1.70;;;15.80;74.10;;;;;;5053248;28;20035;-81
2023/10/17 01:00:09;;;;;;;5.88;1.60;;;15.90;72.90;;;;;;5054390;28;20025;-81
2023/10/17 01:02:44;;;;;;;10.05;1.83;;;16.20;73.20;;;;;;5053902;28;20028;-81
2023/10/17 01:05:12;;;;;;;6.68;1.67;;;16.40;72.60;;;;;;5051731;28;20031;-81
2023/10/17 01:07:42;;;;;;;6.13;1.80;;;16.60;71.70;;;;;;5042693;28;20029;-80
2023/10/17 01:10:13;;;;;;;11.55;1.70;;;16.80;70.80;;;;;;5040927;28;20036;-80
2023/10/17 01:12:56;;;;;;;7.05;2.03;;;16.80;70.30;;;;;;5054618;28;20023;-81
2023/10/17 01:15:28;;;;;;;6.68;1.60;;;16.90;70.70;;;;;;5049291;28;20550;-78
2023/10/17 01:17:57;;;;;;;10.77;1.70;;;16.80;71.10;;;;;;5045797;28;20040;-79
2023/10/17 01:20:25;;;;;;;9.73;1.60;;;16.70;71.70;;;;;;5048821;28;20017;-79
2023/10/17 01:23:00;;;;;;;10.13;2.30;;;16.70;71.90;;;;;;5033601;28;20116;-81
2023/10/17 01:25:35;;;;;;;13.63;2.33;;;16.60;71.70;;;;;;5033706;28;20030;-82
2023/10/17 01:28:05;;;;;;;10.30;1.80;;;16.70;71.70;;;;;;5033857;28;20037;-81
2023/10/17 01:30:33;;;;;;;9.55;2.08;;;16.70;70.30;;;;;;5051973;28;20059;-81
2023/10/17 01:33:00;;;;;;;10.63;2.20;;;16.90;69.90;;;;;;5044790;28;20097;-82
2023/10/17 01:35:28;;;;;;;11.65;1.88;;;17.10;68.90;;;;;;5050416;28;20060;-80
2023/10/17 01:37:55;;;;;;;8.85;1.52;;;17.40;68.90;;;;;;5037749;28;20068;-79
2023/10/17 01:40:23;;;;;;;9.07;1.80;;;17.70;68.20;;;;;;5033462;28;20452;-80
2023/10/17 01:42:54;;;;;;;10.98;2.00;;;17.90;67.50;;;;;;5044057;28;20036;-79
2023/10/17 01:45:25;;;;;;;10.15;1.70;;;18.10;67.00;;;;;;5052885;28;20048;-79
2023/10/17 01:47:53;;;;;;;10.80;1.60;;;18.00;67.40;;;;;;5051653;28;20025;-80
2023/10/17 01:50:24;;;;;;;9.38;1.25;;;17.70;68.70;;;;;;5043488;28;20036;-80
2023/10/17 01:52:54;;;;;;;9.45;1.50;;;17.50;69.40;;;;;;5033154;28;20067;-81
2023/10/17 01:55:27;;;;;;;10.82;1.73;;;17.40;70.70;;;;;;5042817;28;20032;-85
2023/10/17 01:57:57;;;;;;;9.70;1.50;;;17.30;72.00;;;;;;5041497;28;20488;-81
2023/10/17 02:00:45;;;;;;;9.75;1.40;;;17.40;72.70;;;;;;5032662;28;20120;-80
2023/10/17 02:03:12;;;;;;;9.05;1.60;;;17.60;73.90;;;;;;5048953;28;20087;-80
2023/10/17 02:05:40;;;;;;;9.88;1.70;;;17.70;72.80;;;;;;5053178;28;20121;-79
2023/10/17 02:08:08;;;;;;;8.73;2.10;;;17.80;71.30;;;;;;5039542;28;20072;-79
2023/10/17 02:10:36;;;;;;;10.23;2.00;;;17.90;70.90;;;;;;5034532;28;20476;-80
2023/10/17 02:13:06;;;;;;;11.27;2.20;;;18.00;70.70;;;;;;5032420;28;20029;-80
2023/10/17 02:15:34;;;;;;;8.35;1.88;;;18.20;71.20;;;;;;5036644;28;20017;-81
2023/10/17 02:18:11;;;;;;;9.38;2.42;;;18.30;71.50;;;;;;5042961;28;20037;-84
2023/10/17 02:20:45;;;;;;;13.02;2.47;;;18.30;71.30;;;;;;5051084;28;20423;-80
2023/10/17 02:23:19;;;;;;;5.93;1.60;;;18.30;70.60;;;;;;5032796;28;20033;-80
2023/10/17 02:25:49;;;;;;;5.93;1.73;;;18.30;70.70;;;;;;5037919;28;20022;-81
2023/10/17 02:28:17;;;;;;;7.15;1.23;;;18.20;70.60;;;;;;5041501;28;20025;-80
2023/10/17 02:30:47;;;;;;;9.45;1.80;;;18.20;70.80;;;;;;5049131;28;20037;-79
2023/10/17 02:33:17;;;;;;;8.77;1.55;;;18.20;71.70;;;;;;5037269;28;20075;-80
2023/10/17 02:36:12;;;;;;;4.10;1.10;;;18.20;71.40;;;;;;5038502;28;20049;-82
2023/10/17 02:38:41;;;;;;;7.00;1.23;;;18.20;69.80;;;;;;5042451;28;20047;-81
2023/10/17 02:41:12;;;;;;;4.10;1.27;;;18.10;68.40;;;;;;5034954;28;20100;-80
2023/10/17 02:43:45;;;;;;;5.57;1.20;;;18.20;69.00;;;;;;5065628;28;20033;-87
2023/10/17 02:46:14;;;;;;;7.07;1.48;;;18.20;68.90;;;;;;5052657;28;20419;-84
2023/10/17 02:48:48;;;;;;;10.13;1.33;;;18.20;68.30;;;;;;5052012;28;20029;-83
2023/10/17 02:53:53;;;;;;;7.22;1.65;;;18.30;67.80;;;;;;5048956;28;20029;-85
2023/10/17 02:56:21;;;;;;;6.55;1.45;;;18.50;67.30;;;;;;5054840;28;20029;-87
2023/10/17 02:59:11;;;;;;;7.68;1.67;;;18.70;66.50;;;;;;5043744;28;20037;-80
2023/10/17 03:01:44;;;;;;;5.65;1.38;;;18.80;66.00;;;;;;5043689;28;20037;-81
2023/10/17 03:04:13;;;;;;;8.55;1.40;;;18.80;64.20;;;;;;5050345;28;20142;-80
2023/10/17 03:06:42;;;;;;;6.18;1.20;;;18.70;63.30;;;;;;5043477;28;20029;-82
2023/10/17 03:14:40;;;;;;;5.88;1.30;;;18.30;64.00;;;;;;5050355;28;20033;-83
2023/10/17 03:17:08;;;;;;;7.30;1.15;;;18.30;64.30;;;;;;5051530;28;20029;-77
2023/10/17 03:19:36;;;;;;;8.55;1.33;;;18.20;64.50;;;;;;5052178;28;20067;-83
2023/10/17 03:25:02;;;;;;;7.00;1.25;;;18.20;65.20;;;;;;5041511;28;20060;-83
2023/10/17 03:27:37;;;;;;;9.65;1.95;;;18.20;65.60;;;;;;5038262;28;20384;-79
2023/10/17 03:30:14;;;;;;;4.70;1.20;;;18.20;65.50;;;;;;5042490;28;20048;-82
2023/10/17 03:35:31;;;;;;;6.00;1.10;;;18.30;64.90;;;;;;5040676;28;20491;-84
2023/10/17 03:37:59;;;;;;;6.18;1.45;;;18.30;63.90;;;;;;5042847;28;20032;-80
2023/10/17 03:40:35;;;;;;;3.28;1.25;;;18.30;63.60;;;;;;5054199;28;20143;-78
2023/10/17 03:43:21;;;;;;;8.00;1.38;;;18.30;64.20;;;;;;5053074;28;20288;-86
2023/10/17 03:45:52;;;;;;;9.73;1.23;;;18.30;64.50;;;;;;5046579;28;20095;-79
2023/10/17 03:48:21;;;;;;;4.63;1.08;;;18.30;63.00;;;;;;5055175;28;20044;-81
2023/10/17 03:50:57;;;;;;;4.22;1.20;;;18.30;63.60;;;;;;5045248;28;20031;-80
2023/10/17 03:53:30;;;;;;;8.80;1.58;;;18.20;63.80;;;;;;5056470;28;20025;-80
2023/10/17 03:56:02;;;;;;;7.18;1.35;;;18.10;63.50;;;;;;5046877;28;20025;-79
2023/10/17 04:01:00;;;;;;;4.30;0.82;;;17.90;61.50;;;;;;5048915;28;20036;-84
2023/10/17 04:03:30;;;;;;;5.28;1.48;;;17.80;62.10;;;;;;5048312;28;20629;-81
2023/10/17 04:08:50;;;;;;;3.70;1.30;;;17.90;63.50;;;;;;5045408;28;20061;-78
2023/10/17 04:14:00;;;;;;;5.05;0.90;;;17.80;63.30;;;;;;5042471;28;20048;-80
2023/10/17 04:16:35;;;;;;;2.22;0.85;;;17.80;63.10;;;;;;5046322;28;20056;-83
2023/10/17 04:19:17;;;;;;;4.75;1.00;;;17.80;63.40;;;;;;5044385;28;20059;-83
2023/10/17 04:22:01;;;;;;;3.25;0.82;;;17.80;63.30;;;;;;5038273;28;20017;-83
2023/10/17 04:24:38;;;;;;;5.95;1.00;;;17.80;62.70;;;;;;5050289;28;20488;-84
2023/10/17 04:27:19;;;;;;;5.20;1.23;;;17.70;63.10;;;;;;5038673;28;20127;-85
2023/10/17 04:29:50;;;;;;;8.98;1.17;;;17.80;63.00;;;;;;5043251;28;21323;-80
2023/10/17 04:32:19;;;;;;;4.85;1.05;;;17.90;63.00;;;;;;5038572;28;20041;-84
2023/10/17 04:34:48;;;;;;;4.93;0.90;;;17.90;62.80;;;;;;5045760;28;20041;-83
2023/10/17 04:37:17;;;;;;;7.28;0.98;;;18.00;63.20;;;;;;5040825;28;20025;-83
2023/10/17 04:39:50;;;;;;;7.15;1.38;;;18.20;63.50;;;;;;5045579;28;20037;-82
2023/10/17 04:42:47;;;;;;;2.33;0.98;;;18.30;63.50;;;;;;5057588;28;20119;-83
2023/10/17 04:45:13;;;;;;;5.15;1.25;;;18.40;63.10;;;;;;5043108;28;20087;-84
2023/10/17 04:47:46;;;;;;;5.97;1.48;;;18.50;63.00;;;;;;5050992;28;20039;-79
2023/10/17 04:50:13;;;;;;;4.75;1.27;;;18.50;62.70;;;;;;5046930;28;20381;-79
2023/10/17 04:52:41;;;;;;;3.65;0.95;;;18.40;62.80;;;;;;5053755;28;20101;-78
2023/10/17 04:55:18;;;;;;;5.15;1.25;;;18.40;63.10;;;;;;5057219;28;20089;-87
2023/10/17 05:03:20;;;;;;;;;;;18.10;62.90;;;;;;5034664;28;20059;-79
2023/10/17 05:08:31;;;;;;;4.93;1.00;;;17.90;64.30;;;;;;5042561;28;20055;-85
2023/10/17 06:17:40;;;;;;;7.77;1.87;;;16.60;75.70;;;;;;5016013;28;20048;-85
2023/10/17 06:20:16;;;;;;;13.77;1.40;;;16.50;76.00;;;;;;5034050;28;20683;-78
2023/10/17 06:33:27;;;;;;;8.63;1.95;;;16.90;75.40;;;;;;5034896;28;20131;-81
2023/10/17 06:35:55;;;;;;;8.45;1.70;;;16.80;75.10;;;;;;5040259;28;20549;-81
2023/10/17 06:38:30;;;;;;;3.95;1.17;;;16.80;74.80;;;;;;5043101;28;20041;-83
2023/10/17 06:41:14;;;;;;;6.83;1.53;;;16.70;75.00;;;;;;5036110;28;20436;-78
2023/10/17 06:43:46;;;;;;;9.73;2.47;;;16.70;75.30;;;;;;5035329;28;20179;-82
2023/10/17 06:46:28;;;;;;;6.28;1.60;;;16.50;76.60;;;;;;5047357;28;20032;-81
2023/10/17 06:49:04;;;;;;;12.73;1.52;;;16.40;77.80;;;;;;5036030;28;20104;-81
2023/10/17 06:51:36;;;;;;;9.10;1.65;;;16.30;78.10;;;;;;5036114;28;20476;-79
2023/10/17 06:54:08;;;;;;;6.45;1.50;;;16.30;78.40;;;;;;5039167;28;20481;-78
2023/10/17 06:56:44;;;;;;;10.32;2.58;;;16.30;78.20;;;;;;5035053;28;20579;-80
2023/10/17 06:59:24;;;;;;;6.00;1.48;;;16.30;78.10;;;;;;5041386;28;20029;-81
2023/10/17 07:02:10;;;;;;;7.95;1.65;;;16.20;78.00;;;;;;5032136;28;20665;-81
2023/10/17 07:04:38;;;;;;;8.25;1.40;;;16.20;78.00;;;;;;5046594;28;20041;-80
2023/10/17 07:07:13;;;;;;;9.30;1.45;;;16.20;77.70;;;;;;5043576;28;20572;-84
2023/10/17 07:09:42;;;;;;;12.55;1.65;;;16.10;77.80;;;;;;5041353;28;20029;-79
2023/10/17 07:12:13;;;;;;;11.95;2.67;;;15.90;77.80;;;;;;5045092;28;20025;-82
2023/10/17 07:14:41;;;;;;;8.75;1.92;;;15.80;78.30;;;;;;5049771;28;20422;-80
2023/10/17 07:17:28;;;;;;;12.07;2.65;;;15.70;78.70;;;;;;5057097;28;20024;-80
2023/10/17 07:20:12;;;;;;;8.10;1.77;;;15.70;78.90;;;;;;5051646;28;20520;-81
2023/10/17 07:22:41;;;;;;;8.85;1.55;;;15.70;78.90;;;;;;5041449;28;20365;-80
2023/10/17 07:25:19;;;;;;;7.18;1.80;;;15.70;79.20;;;;;;5040566;28;20037;-81
2023/10/17 07:27:46;;;;;;;10.77;2.03;;;15.70;79.10;;;;;;5046820;28;20033;-81
2023/10/17 07:30:14;;;;;;;5.90;1.83;;;15.70;79.10;;;;;;5036491;28;20519;-79
2023/10/17 07:32:48;;;;;;;8.38;1.60;;;15.80;79.10;;;;;;5064326;28;20032;-82
2023/10/17 07:35:23;;;;;;;8.30;1.65;;;15.70;78.70;;;;;;5041921;28;20536;-82
2023/10/17 07:37:54;;;;;;;4.85;0.98;;;15.60;78.50;;;;;;5045912;28;20510;-84
2023/10/17 07:40:31;;;;;;;5.63;1.40;;;15.60;78.60;;;;;;5051436;28;20413;-82
2023/10/17 07:43:00;;;;;;;10.15;1.65;;;15.60;78.70;;;;;;5045439;28;20111;-80
2023/10/17 07:45:55;;;;;;;6.05;1.52;;;15.60;79.00;;;;;;5054945;28;20041;-79
2023/10/17 07:48:23;;;;;;;8.02;3.17;;;15.60;79.30;;;;;;5046670;28;20158;-80
2023/10/17 07:50:53;;;;;;;7.68;1.63;;;15.40;80.00;;;;;;5035675;28;20026;-79
2023/10/17 07:53:21;;;;;;;8.80;1.70;;;15.30;80.90;;;;;;5051604;28;20102;-79
2023/10/17 07:55:52;;;;;;;6.65;1.45;;;15.20;81.20;;;;;;5047904;28;20472;-80
2023/10/17 08:01:09;;;;;;;8.77;2.05;;;15.00;81.90;;;;;;5039244;28;20075;-81
2023/10/17 08:03:41;;;;;;;7.35;2.65;;;14.90;82.30;;;;;;5046545;28;20024;-79
2023/10/17 08:06:12;;;;;;;6.65;1.73;;;14.90;82.50;;;;;;5047180;28;20033;-80
2023/10/17 08:08:42;;;;;;;4.75;1.50;;;14.80;82.80;;;;;;5035026;28;20025;-80
2023/10/17 08:11:26;;;;;;;7.38;1.52;;;14.80;83.10;;;;;;5035350;28;20128;-79
2023/10/17 08:14:01;;;;;;;10.32;2.17;;;14.80;83.30;;;;;;5038656;28;20029;-78
2023/10/17 08:16:32;;;;;;;8.93;1.98;;;14.80;83.50;;;;;;5035244;28;20022;-79
2023/10/17 08:27:45;;;;;;;9.38;2.03;;;14.80;83.60;;;;;;5053412;28;20029;-79
2023/10/17 08:30:12;;;;;;;5.40;2.30;;;14.80;83.90;;;;;;5035677;28;20099;-80
2023/10/17 08:32:39;;;;;;;8.48;1.85;;;14.70;84.10;;;;;;5043752;28;20014;-80
2023/10/17 08:35:19;;;;;;;5.35;1.77;;;14.70;84.20;;;;;;5035705;28;20484;-79
2023/10/17 08:37:49;;;;;;;9.18;2.08;;;14.80;84.50;;;;;;5034535;28;20392;-80
2023/10/17 08:43:14;;;;;;;7.43;1.70;;;14.70;84.70;;;;;;5040358;28;20082;-81
2023/10/17 08:45:46;;;;;;;9.63;1.65;;;14.70;84.80;;;;;;5041558;28;20278;-82
2023/10/17 08:48:14;;;;;;;6.25;1.38;;;14.70;84.90;;;;;;5046250;28;20025;-80
2023/10/17 08:50:42;;;;;;;7.07;1.88;;;14.70;85.00;;;;;;5038029;28;20026;-79
2023/10/17 08:55:44;;;;;;;11.20;1.95;;;14.70;84.70;;;;;;5041778;28;20109;-81
2023/10/17 08:58:13;;;;;;;8.05;1.80;;;14.70;84.80;;;;;;5033849;28;20025;-80
2023/10/17 09:03:46;;;;;;;4.75;1.48;;;14.70;84.80;;;;;;5050550;28;20488;-80
2023/10/17 09:08:52;;;;;;;7.63;2.13;;;14.70;84.80;;;;;;5045283;28;20030;-80
2023/10/17 09:11:29;;;;;;;8.20;2.00;;;14.70;84.80;;;;;;5033821;28;20040;-79
2023/10/17 09:14:24;;;;;;;3.95;1.02;;;14.80;85.00;;;;;;5041042;28;20029;-80
2023/10/17 09:17:21;;;;;;;9.43;1.60;;;14.80;85.00;;;;;;5047102;28;20056;-81
2023/10/17 09:19:51;;;;;;;6.70;1.40;;;14.80;84.80;;;;;;5043381;28;20076;-80
2023/10/17 09:22:43;;;;;;;13.30;1.92;;;14.90;84.50;;;;;;5051765;28;20494;-81
2023/10/17 09:25:22;;;;;;;12.43;1.77;;;14.90;84.30;;;;;;5049503;28;20048;-80
2023/10/17 09:27:52;;;;;;;8.02;1.77;;;14.90;84.10;;;;;;5049789;28;20411;-79
2023/10/17 09:30:19;;;;;;;8.75;1.33;;;14.90;83.90;;;;;;5049675;28;20033;-82
2023/10/17 09:32:48;;;;;;;6.10;1.17;;;14.90;83.70;;;;;;5067092;28;20017;-81
2023/10/17 09:35:19;;;;;;;22.48;2.22;;;14.90;83.20;;;;;;5056677;28;20029;-80
2023/10/17 09:37:51;;;;;;;11.07;1.55;;;14.90;83.20;;;;;;5055036;28;20017;-81
2023/10/17 09:40:33;;;;;;;8.10;1.63;;;14.90;82.90;;;;;;5055602;28;20095;-79
2023/10/17 09:43:01;;;;;;;5.55;1.33;;;14.90;82.60;;;;;;5060655;28;20036;-83
2023/10/17 09:45:34;;;;;;;8.07;1.65;;;15.00;82.50;;;;;;5050936;28;20036;-83
2023/10/17 09:48:05;;;;;;;16.73;2.03;;;15.00;82.40;;;;;;5063254;28;20054;-83
2023/10/17 09:50:35;;;;;;;15.73;9.18;;;15.00;82.40;;;;;;5047780;28;20121;-82
2023/10/17 09:53:16;;;;;;;7.18;1.40;;;15.00;82.40;;;;;;5049158;28;20032;-82
2023/10/17 09:55:49;;;;;;;7.50;1.90;;;15.00;82.40;;;;;;5052899;28;20055;-82
2023/10/17 09:58:22;;;;;;;7.38;1.55;;;15.00;82.40;;;;;;5056547;28;20030;-83
2023/10/17 10:01:00;;;;;;;6.72;1.48;;;15.00;82.20;;;;;;5072225;28;20020;-84
2023/10/17 10:03:28;;;;;;;10.13;1.52;;;15.10;82.30;;;;;;5043680;28;20131;-82
2023/10/17 10:06:16;;;;;;;4.97;1.30;;;15.00;81.70;;;;;;5053179;28;20032;-80
2023/10/17 10:08:43;;;;;;;8.77;1.60;;;15.00;81.60;;;;;;5051934;28;20170;-84
2023/10/17 10:11:11;;;;;;;8.00;1.30;;;15.10;81.60;;;;;;5057485;28;20039;-81
2023/10/17 10:14:03;;;;;;;7.50;1.50;;;15.10;81.60;;;;;;5050695;28;20036;-82
2023/10/17 10:16:55;;;;;;;6.07;1.23;;;15.20;81.70;;;;;;5070608;28;20035;-80
2023/10/17 10:19:22;;;;;;;5.13;1.00;;;15.20;81.50;;;;;;5034584;28;20570;-80
2023/10/17 10:21:54;;;;;;;4.18;0.90;;;15.20;81.20;;;;;;5067416;28;20075;-81
2023/10/17 10:24:29;;;;;;;5.70;1.35;;;15.20;81.00;;;;;;5034470;28;20702;-81
2023/10/17 10:27:24;;;;;;;6.50;1.42;;;15.20;80.80;;;;;;5047681;28;20078;-80
2023/10/17 10:30:29;;;;;;;5.10;1.15;;;15.20;80.50;;;;;;5051009;28;20520;-80
2023/10/17 10:32:59;;;;;;;8.88;2.28;;;15.20;80.40;;;;;;5038077;28;20044;-80
2023/10/17 10:35:27;;;;;;;5.63;0.90;;;15.20;80.30;;;;;;5045481;28;20105;-80
2023/10/17 10:37:55;;;;;;;8.68;1.50;;;15.20;80.20;;;;;;5034840;28;20021;-79
2023/10/17 10:43:01;;;;;;;7.63;1.30;;;15.20;79.80;;;;;;5051935;28;20472;-81
2023/10/17 10:45:55;;;;;;;6.78;1.38;;;15.20;79.80;;;;;;5047240;28;20025;-79
2023/10/17 10:48:22;;;;;;;9.98;1.80;;;15.20;80.00;;;;;;5047680;28;20025;-79
2023/10/17 10:50:57;;;;;;;8.43;1.88;;;15.20;80.00;;;;;;5042966;28;20114;-79
2023/10/17 10:53:31;;;;;;;10.90;3.05;;;15.20;79.90;;;;;;5036812;28;20028;-78
2023/10/17 10:56:03;;;;;;;6.47;1.45;;;15.20;79.90;;;;;;5038110;28;20079;-82
2023/10/17 10:58:36;;;;;;;7.57;1.40;;;15.20;79.90;;;;;;5032311;28;20017;-80
2023/10/17 11:01:07;;;;;;;10.02;1.52;;;15.20;79.60;;;;;;5042045;28;20500;-79
2023/10/17 11:03:46;;;;;;;6.57;1.67;;;15.20;79.50;;;;;;5044998;28;20059;-83
2023/10/17 11:06:15;;;;;;;9.50;1.48;;;15.20;79.30;;;;;;5059212;28;20476;-80
2023/10/17 11:08:44;;;;;;;9.75;1.70;;;15.30;79.10;;;;;;5041915;28;20029;-80
2023/10/17 11:11:21;;;;;;;4.45;1.30;;;15.30;79.00;;;;;;5043617;28;20033;-80
2023/10/17 11:13:51;;;;;;;8.30;1.77;;;15.30;78.90;;;;;;5045730;28;20025;-79
2023/10/17 11:16:26;;;;;;;8.70;1.33;;;15.20;78.90;;;;;;5054095;28;20029;-80
2023/10/17 11:18:54;;;;;;;9.60;1.63;;;15.30;78.90;;;;;;5051883;28;20033;-79
2023/10/17 11:21:23;;;;;;;8.05;1.63;;;15.30;79.00;;;;;;5048959;28;20328;-78
2023/10/17 11:24:04;;;;;;;8.90;1.77;;;15.40;79.30;;;;;;5061586;28;20028;-79
2023/10/17 11:26:34;;;;;;;10.43;1.70;;;15.40;79.30;;;;;;5051733;28;20021;-78
2023/10/17 11:29:05;;;;;;;9.35;1.58;;;15.40;79.50;;;;;;5051862;28;20017;-78
2023/10/17 11:31:33;;;;;;;7.75;1.80;;;15.50;79.60;;;;;;5050934;28;20020;-79
2023/10/17 11:34:22;;;;;;;11.18;1.45;;;15.40;79.50;;;;;;5051562;28;20111;-78
2023/10/17 11:37:02;;;;;;;6.93;1.20;;;15.40;79.60;;;;;;5054314;28;20025;-78
2023/10/17 11:40:02;;;;;;;5.78;1.15;;;15.50;79.70;;;;;;5042934;28;20145;-78
2023/10/17 11:42:34;;;;;;;10.00;1.83;;;15.50;79.80;;;;;;5042779;28;20029;-78
2023/10/17 11:45:18;;;;;;;8.27;1.10;;;15.50;80.10;;;;;;5045453;28;20041;-79
2023/10/17 11:47:46;;;;;;;8.23;1.38;;;15.50;80.20;;;;;;5048172;28;20036;-79
2023/10/17 11:50:13;;;;;;;3.88;0.80;;;15.30;80.30;;;;;;5048143;28;20482;-80
2023/10/17 11:52:43;;;;;;;6.35;1.00;;;15.30;80.60;;;;;;5055672;28;20021;-80
2023/10/17 11:55:16;;;;;;;7.72;1.38;;;15.30;80.80;;;;;;5055425;28;20029;-80
2023/10/17 11:57:49;;;;;;;7.88;1.08;;;15.20;80.70;;;;;;5035961;28;20026;-80
2023/10/17 12:02:48;;;;;;;4.63;1.15;;;15.30;80.90;;;;;;5039328;28;20014;-79
2023/10/17 12:05:20;;;;;;;7.15;1.63;;;15.20;80.90;;;;;;5047850;28;20498;-80
2023/10/17 12:07:53;;;;;;;7.43;1.13;;;15.20;80.90;;;;;;5053964;28;20029;-79
2023/10/17 12:10:21;;;;;;;7.28;1.52;;;15.20;80.90;;;;;;5053389;28;20025;-79
2023/10/17 12:13:13;;;;;;;2.72;0.82;;;15.30;81.30;;;;;;5042349;28;20025;-79
2023/10/17 12:15:36;;;;;;;8.63;1.45;;;15.20;81.30;;;;;;5049718;28;20052;-79
2023/10/17 12:18:03;;;;;;;5.72;1.00;;;15.30;81.50;;;;;;5045286;28;20022;-79
2023/10/17 12:20:31;;;;;;;5.55;1.05;;;15.30;81.40;;;;;;5034125;28;20394;-79
2023/10/17 12:23:02;;;;;;;7.40;1.15;;;15.20;81.40;;;;;;5036603;28;20026;-79
2023/10/17 12:25:32;;;;;;;9.30;1.55;;;15.20;81.40;;;;;;5037945;28;20022;-79
2023/10/17 12:28:02;;;;;;;4.78;1.02;;;15.30;81.20;;;;;;5040995;28;20464;-78
2023/10/17 12:30:35;;;;;;;7.15;1.42;;;15.30;81.10;;;;;;5053779;28;20044;-79
2023/10/17 12:33:05;;;;;;;10.27;1.20;;;15.30;81.20;;;;;;5051676;28;20029;-80
2023/10/17 12:35:33;;;;;;;6.57;1.20;;;15.30;81.10;;;;;;5053748;28;20033;-79
2023/10/17 12:38:14;;;;;;;9.40;1.10;;;15.30;80.80;;;;;;5050961;28;20021;-79
2023/10/17 12:40:44;;;;;;;7.18;1.80;;;15.30;80.90;;;;;;5050756;28;20435;-79
2023/10/17 12:43:12;;;;;;;5.78;0.98;;;15.30;80.70;;;;;;5053081;28;20025;-80
2023/10/17 12:45:39;;;;;;;7.45;1.40;;;15.30;80.60;;;;;;5053293;28;20029;-79
2023/10/17 12:48:10;;;;;;;4.45;0.85;;;15.40;80.50;;;;;;5051696;28;20078;-78
2023/10/17 12:50:45;;;;;;;9.10;1.00;;;15.40;80.30;;;;;;5049960;28;20108;-80
2023/10/17 12:53:13;;;;;;;9.10;1.83;;;15.40;80.20;;;;;;5046949;28;20039;-79
2023/10/17 12:55:41;;;;;;;4.85;0.90;;;15.40;80.30;;;;;;5044423;28;20028;-79
2023/10/17 12:58:10;;;;;;;8.63;1.30;;;15.40;80.30;;;;;;5054507;28;20086;-79
2023/10/17 13:00:42;;;;;;;4.80;0.85;;;15.40;79.80;;;;;;5053284;28;20487;-79
2023/10/17 13:03:09;;;;;;;5.72;1.25;;;15.40;79.40;;;;;;5049231;28;20041;-79
2023/10/17 13:05:37;;;;;;;7.70;1.35;;;15.50;79.50;;;;;;5034288;28;20513;-79
2023/10/17 13:08:04;;;;;;;9.93;1.85;;;15.50;79.10;;;;;;5034419;28;20427;-78
2023/10/17 13:10:32;;;;;;;4.55;0.95;;;15.50;79.10;;;;;;5046103;28;20109;-80
2023/10/17 13:13:00;;;;;;;10.63;1.23;;;15.50;78.90;;;;;;5049594;28;20067;-79
2023/10/17 13:15:27;;;;;;;4.05;1.23;;;15.50;78.90;;;;;;5042170;28;20029;-79
2023/10/17 13:18:00;;;;;;;8.40;1.52;;;15.50;78.40;;;;;;5041347;28;20017;-81
2023/10/17 13:20:32;;;;;;;5.28;1.42;;;15.50;78.60;;;;;;5049487;28;20089;-80
2023/10/17 13:23:05;;;;;;;11.75;1.60;;;15.50;78.40;;;;;;5057530;28;20024;-80
2023/10/17 13:25:38;;;;;;;10.95;1.20;;;15.50;78.40;;;;;;5047414;28;20097;-79
2023/10/17 13:28:06;;;;;;;10.02;1.85;;;15.50;78.40;;;;;;5047587;28;20384;-79
2023/10/17 13:30:34;;;;;;;15.93;1.50;;;15.50;78.30;;;;;;5046247;28;20025;-80
2023/10/17 13:33:01;;;;;;;8.57;1.50;;;15.50;78.30;;;;;;5038332;28;20025;-80
2023/10/17 13:35:30;;;;;;;10.93;1.55;;;15.50;78.20;;;;;;5051958;28;20021;-79
2023/10/17 13:37:58;;;;;;;5.85;1.30;;;15.60;78.00;;;;;;5047504;28;20032;-78
2023/10/17 13:40:27;;;;;;;4.50;1.10;;;15.60;77.80;;;;;;5045779;28;20071;-78
2023/10/17 13:42:54;;;;;;;6.35;1.23;;;15.50;77.50;;;;;;5048487;28;20358;-79
2023/10/17 13:45:22;;;;;;;8.93;0.90;;;15.60;77.40;;;;;;5047896;28;20047;-80
2023/10/17 13:47:50;;;;;;;7.50;0.90;;;15.50;77.30;;;;;;5045605;28;20020;-80
2023/10/17 13:50:19;;;;;;;6.53;1.20;;;15.50;77.30;;;;;;5047653;28;20051;-80
2023/10/17 13:52:52;;;;;;;8.13;1.30;;;15.50;77.10;;;;;;5044537;28;20040;-80
2023/10/17 13:55:25;;;;;;;4.15;1.00;;;15.60;77.40;;;;;;5047096;28;20051;-80
2023/10/17 13:58:01;;;;;;;5.85;1.50;;;15.50;77.20;;;;;;5051145;28;20100;-80
2023/10/17 14:00:42;;;;;;;4.30;1.00;;;15.50;77.30;;;;;;5049080;28;20424;-80
2023/10/17 14:03:14;;;;;;;7.72;1.02;;;15.50;77.20;;;;;;5050272;28;20029;-80
2023/10/17 14:05:48;;;;;;;8.00;1.30;;;15.50;77.10;;;;;;5045265;28;20029;-80
2023/10/17 14:08:17;;;;;;;6.47;1.15;;;15.40;77.20;;;;;;5051894;28;20021;-80
2023/10/17 14:10:48;;;;;;;6.22;1.50;;;15.40;77.10;;;;;;5047843;28;20055;-81
2023/10/17 14:13:17;;;;;;;2.47;0.80;;;15.30;76.90;;;;;;5043498;28;20082;-79
2023/10/17 14:15:45;;;;;;;4.90;1.00;;;15.30;77.10;;;;;;5047376;28;20067;-81
2023/10/17 14:18:16;;;;;;;6.95;1.27;;;15.30;77.10;;;;;;5050107;28;20025;-80
2023/10/17 14:23:32;;;;;;;6.97;1.17;;;15.30;77.20;;;;;;5047300;28;20078;-81
2023/10/17 14:26:03;;;;;;;3.70;1.02;;;15.30;77.40;;;;;;5043509;28;20389;-81
2023/10/17 14:28:32;;;;;;;5.68;1.48;;;15.30;77.20;;;;;;5038311;28;20048;-80
2023/10/17 14:31:09;;;;;;;6.82;1.00;;;15.30;77.10;;;;;;5051606;28;20033;-79
2023/10/17 14:33:37;;;;;;;6.55;0.90;;;15.30;77.30;;;;;;5051568;28;20464;-80
2023/10/17 14:36:11;;;;;;;3.97;0.77;;;15.30;77.30;;;;;;5042396;28;20029;-80
2023/10/17 14:38:38;;;;;;;4.53;1.00;;;15.20;77.60;;;;;;5048179;28;20124;-80
2023/10/17 14:41:10;;;;;;;5.40;1.15;;;15.20;77.40;;;;;;5048651;28;20376;-80
2023/10/17 14:43:49;;;;;;;5.70;1.10;;;15.20;77.60;;;;;;5050381;28;20116;-79
2023/10/17 14:46:18;;;;;;;4.13;0.80;;;15.20;77.70;;;;;;5041439;28;20029;-80
2023/10/17 14:48:45;;;;;;;7.45;1.10;;;15.20;77.90;;;;;;5050547;28;20021;-79
2023/10/17 14:51:13;;;;;;;4.53;1.00;;;15.20;77.90;;;;;;5046289;28;20029;-79
2023/10/17 14:53:46;;;;;;;4.50;1.05;;;15.30;77.80;;;;;;5050326;28;20021;-80
2023/10/17 14:56:13;;;;;;;6.75;0.98;;;15.30;77.60;;;;;;5039185;28;20029;-81
2023/10/17 14:58:50;;;;;;;5.45;0.93;;;15.40;77.40;;;;;;5049778;28;20027;-79
2023/10/17 15:01:18;;;;;;;6.53;1.00;;;15.30;77.50;;;;;;5049460;28;20091;-81
2023/10/17 15:03:50;;;;;;;5.53;1.30;;;15.30;77.70;;;;;;5050791;28;20083;-80
2023/10/17 15:06:18;;;;;;;4.07;0.93;;;15.30;77.80;;;;;;5043749;28;20492;-82
2023/10/17 15:08:45;;;;;;;4.03;0.80;;;15.30;77.70;;;;;;5048332;28;20037;-80
2023/10/17 15:11:13;;;;;;;5.97;1.10;;;15.30;77.70;;;;;;5056603;28;20029;-80
2023/10/17 15:13:40;;;;;;;2.35;0.70;;;15.20;77.80;;;;;;5048919;28;20150;-79
2023/10/17 15:16:16;;;;;;;3.50;0.70;;;15.20;77.90;;;;;;5041382;28;20092;-79
2023/10/17 15:18:43;;;;;;;4.55;1.63;;;15.20;78.00;;;;;;5050009;28;20048;-79
2023/10/17 15:21:15;;;;;;;4.88;0.80;;;15.30;78.10;;;;;;5048201;28;20108;-78
2023/10/17 15:23:43;;;;;;;7.13;1.27;;;15.20;77.90;;;;;;5046543;28;20484;-79
2023/10/17 15:26:11;;;;;;;5.18;1.08;;;15.20;78.10;;;;;;5038557;28;20036;-79
2023/10/17 15:28:41;;;;;;;7.22;0.90;;;15.20;78.30;;;;;;5046610;28;20029;-79
2023/10/17 15:31:09;;;;;;;5.07;1.17;;;15.20;78.60;;;;;;5051645;28;20392;-79
2023/10/17 15:33:37;;;;;;;4.57;0.93;;;15.20;78.90;;;;;;5047180;28;20083;-79
2023/10/17 15:36:06;;;;;;;4.55;1.00;;;15.20;79.00;;;;;;5049133;28;20083;-81